<?xml version="1.0" encoding="UTF-8" standalone="no" ?>
<gpx xmlns="http://www.topografix.com/GPX/1/1" xmlns:xsi="http://www.w3.org/2001/XMLSchema-instance" xsi:schemaLocation="http://www.topografix.com/GPX/1/1 http://www.topografix.com/GPX/1/1/gpx.xsd" version="1.1" creator="VisuGPX - https://www.visugpx.com">
  <metadata>
    <name>ISSOU GUITRANCOURT BRUEIL</name>
    <desc><![CDATA[FAIT]]></desc>
  </metadata>
  <trk>
    <name><![CDATA[Issou-Guitrancourt-Breuil-en-Vexin-16818139]]></name>
    <trkseg>
      <trkpt lat="48.98563" lon="1.79443">
        <ele>62</ele>
        <time>2023-06-30T13:44:46Z</time>
      </trkpt>
      <trkpt lat="48.98781" lon="1.79427">
        <ele>72</ele>
        <time>2023-06-30T13:46:35Z</time>
      </trkpt>
      <trkpt lat="48.98783" lon="1.79345">
        <ele>72</ele>
        <time>2023-06-30T13:47:02Z</time>
      </trkpt>
      <trkpt lat="48.9878" lon="1.79347">
        <ele>72</ele>
        <time>2023-06-30T13:47:04Z</time>
      </trkpt>
      <trkpt lat="48.9878" lon="1.79214">
        <ele>71</ele>
        <time>2023-06-30T13:47:47Z</time>
      </trkpt>
      <trkpt lat="48.98782" lon="1.79154">
        <ele>71</ele>
        <time>2023-06-30T13:48:07Z</time>
      </trkpt>
      <trkpt lat="48.9879" lon="1.79044">
        <ele>71</ele>
        <time>2023-06-30T13:48:44Z</time>
      </trkpt>
      <trkpt lat="48.98815" lon="1.78755">
        <ele>71</ele>
        <time>2023-06-30T13:50:19Z</time>
      </trkpt>
      <trkpt lat="48.98815" lon="1.78728">
        <ele>71</ele>
        <time>2023-06-30T13:50:28Z</time>
      </trkpt>
      <trkpt lat="48.98812" lon="1.78719">
        <ele>71</ele>
        <time>2023-06-30T13:50:31Z</time>
      </trkpt>
      <trkpt lat="48.98812" lon="1.78715">
        <ele>71</ele>
        <time>2023-06-30T13:50:33Z</time>
      </trkpt>
      <trkpt lat="48.98815" lon="1.78706">
        <ele>71</ele>
        <time>2023-06-30T13:50:36Z</time>
      </trkpt>
      <trkpt lat="48.9882" lon="1.78702">
        <ele>71</ele>
        <time>2023-06-30T13:50:39Z</time>
      </trkpt>
      <trkpt lat="48.98831" lon="1.78595">
        <ele>67</ele>
        <time>2023-06-30T13:51:14Z</time>
      </trkpt>
      <trkpt lat="48.98864" lon="1.7824">
        <ele>52</ele>
        <time>2023-06-30T13:53:12Z</time>
      </trkpt>
      <trkpt lat="48.98871" lon="1.78225">
        <ele>52</ele>
        <time>2023-06-30T13:53:18Z</time>
      </trkpt>
      <trkpt lat="48.98956" lon="1.78066">
        <ele>49</ele>
        <time>2023-06-30T13:54:26Z</time>
      </trkpt>
      <trkpt lat="48.98992" lon="1.77963">
        <ele>46</ele>
        <time>2023-06-30T13:55:04Z</time>
      </trkpt>
      <trkpt lat="48.99018" lon="1.77915">
        <ele>47</ele>
        <time>2023-06-30T13:55:24Z</time>
      </trkpt>
      <trkpt lat="48.99089" lon="1.77838">
        <ele>47</ele>
        <time>2023-06-30T13:56:08Z</time>
      </trkpt>
      <trkpt lat="48.99123" lon="1.77788">
        <ele>45</ele>
        <time>2023-06-30T13:56:32Z</time>
      </trkpt>
      <trkpt lat="48.99155" lon="1.77755">
        <ele>44</ele>
        <time>2023-06-30T13:56:51Z</time>
      </trkpt>
      <trkpt lat="48.99187" lon="1.77737">
        <ele>44</ele>
        <time>2023-06-30T13:57:08Z</time>
      </trkpt>
      <trkpt lat="48.99236" lon="1.77717">
        <ele>44</ele>
        <time>2023-06-30T13:57:33Z</time>
      </trkpt>
      <trkpt lat="48.99327" lon="1.77728">
        <ele>45</ele>
        <time>2023-06-30T13:58:19Z</time>
      </trkpt>
      <trkpt lat="48.99351" lon="1.77734">
        <ele>46</ele>
        <time>2023-06-30T13:58:31Z</time>
      </trkpt>
      <trkpt lat="48.99367" lon="1.77734">
        <ele>46</ele>
        <time>2023-06-30T13:58:39Z</time>
      </trkpt>
      <trkpt lat="48.99394" lon="1.77741">
        <ele>46</ele>
        <time>2023-06-30T13:58:53Z</time>
      </trkpt>
      <trkpt lat="48.99455" lon="1.77778">
        <ele>49</ele>
        <time>2023-06-30T13:59:26Z</time>
      </trkpt>
      <trkpt lat="48.99613" lon="1.77897">
        <ele>50</ele>
        <time>2023-06-30T14:00:54Z</time>
      </trkpt>
      <trkpt lat="48.99904" lon="1.78228">
        <ele>55</ele>
        <time>2023-06-30T14:03:56Z</time>
      </trkpt>
      <trkpt lat="48.99929" lon="1.78195">
        <ele>54</ele>
        <time>2023-06-30T14:04:12Z</time>
      </trkpt>
      <trkpt lat="48.99942" lon="1.78173">
        <ele>53</ele>
        <time>2023-06-30T14:04:22Z</time>
      </trkpt>
      <trkpt lat="48.99983" lon="1.78038">
        <ele>53</ele>
        <time>2023-06-30T14:05:11Z</time>
      </trkpt>
      <trkpt lat="49.00006" lon="1.77951">
        <ele>55</ele>
        <time>2023-06-30T14:05:42Z</time>
      </trkpt>
      <trkpt lat="49.00007" lon="1.77941">
        <ele>55</ele>
        <time>2023-06-30T14:05:45Z</time>
      </trkpt>
      <trkpt lat="49.00012" lon="1.7793">
        <ele>55</ele>
        <time>2023-06-30T14:05:49Z</time>
      </trkpt>
      <trkpt lat="49.0004" lon="1.77884">
        <ele>54</ele>
        <time>2023-06-30T14:06:10Z</time>
      </trkpt>
      <trkpt lat="49.00115" lon="1.77967">
        <ele>61</ele>
        <time>2023-06-30T14:06:56Z</time>
      </trkpt>
      <trkpt lat="49.00179" lon="1.78019">
        <ele>67</ele>
        <time>2023-06-30T14:07:33Z</time>
      </trkpt>
      <trkpt lat="49.0023" lon="1.78065">
        <ele>73</ele>
        <time>2023-06-30T14:08:02Z</time>
      </trkpt>
      <trkpt lat="49.00254" lon="1.78105">
        <ele>78</ele>
        <time>2023-06-30T14:08:20Z</time>
      </trkpt>
      <trkpt lat="49.0026" lon="1.78111">
        <ele>80</ele>
        <time>2023-06-30T14:08:24Z</time>
      </trkpt>
      <trkpt lat="49.00285" lon="1.78099">
        <ele>80</ele>
        <time>2023-06-30T14:08:37Z</time>
      </trkpt>
      <trkpt lat="49.00359" lon="1.77983">
        <ele>77</ele>
        <time>2023-06-30T14:09:30Z</time>
      </trkpt>
      <trkpt lat="49.00394" lon="1.77939">
        <ele>78</ele>
        <time>2023-06-30T14:09:53Z</time>
      </trkpt>
      <trkpt lat="49.00429" lon="1.77907">
        <ele>77</ele>
        <time>2023-06-30T14:10:13Z</time>
      </trkpt>
      <trkpt lat="49.00445" lon="1.77896">
        <ele>77</ele>
        <time>2023-06-30T14:10:22Z</time>
      </trkpt>
      <trkpt lat="49.00477" lon="1.77882">
        <ele>78</ele>
        <time>2023-06-30T14:10:38Z</time>
      </trkpt>
      <trkpt lat="49.00504" lon="1.7788">
        <ele>78</ele>
        <time>2023-06-30T14:10:52Z</time>
      </trkpt>
      <trkpt lat="49.00586" lon="1.77883">
        <ele>74</ele>
        <time>2023-06-30T14:11:33Z</time>
      </trkpt>
      <trkpt lat="49.00616" lon="1.7787">
        <ele>73</ele>
        <time>2023-06-30T14:11:49Z</time>
      </trkpt>
      <trkpt lat="49.00644" lon="1.77862">
        <ele>73</ele>
        <time>2023-06-30T14:12:03Z</time>
      </trkpt>
      <trkpt lat="49.00646" lon="1.77873">
        <ele>73</ele>
        <time>2023-06-30T14:12:07Z</time>
      </trkpt>
      <trkpt lat="49.00651" lon="1.77878">
        <ele>73</ele>
        <time>2023-06-30T14:12:10Z</time>
      </trkpt>
      <trkpt lat="49.00671" lon="1.77873">
        <ele>73</ele>
        <time>2023-06-30T14:12:20Z</time>
      </trkpt>
      <trkpt lat="49.0073" lon="1.77827">
        <ele>75</ele>
        <time>2023-06-30T14:12:53Z</time>
      </trkpt>
      <trkpt lat="49.00738" lon="1.77818">
        <ele>75</ele>
        <time>2023-06-30T14:12:58Z</time>
      </trkpt>
      <trkpt lat="49.00751" lon="1.77793">
        <ele>76</ele>
        <time>2023-06-30T14:13:08Z</time>
      </trkpt>
      <trkpt lat="49.00775" lon="1.77744">
        <ele>77</ele>
        <time>2023-06-30T14:13:28Z</time>
      </trkpt>
      <trkpt lat="49.00797" lon="1.77714">
        <ele>78</ele>
        <time>2023-06-30T14:13:43Z</time>
      </trkpt>
      <trkpt lat="49.00805" lon="1.77719">
        <ele>78</ele>
        <time>2023-06-30T14:13:48Z</time>
      </trkpt>
      <trkpt lat="49.0081" lon="1.77725">
        <ele>78</ele>
        <time>2023-06-30T14:13:51Z</time>
      </trkpt>
      <trkpt lat="49.00875" lon="1.77746">
        <ele>82</ele>
        <time>2023-06-30T14:14:24Z</time>
      </trkpt>
      <trkpt lat="49.00889" lon="1.77717">
        <ele>83</ele>
        <time>2023-06-30T14:14:36Z</time>
      </trkpt>
      <trkpt lat="49.00907" lon="1.77667">
        <ele>84</ele>
        <time>2023-06-30T14:14:55Z</time>
      </trkpt>
      <trkpt lat="49.00916" lon="1.77648">
        <ele>84</ele>
        <time>2023-06-30T14:15:02Z</time>
      </trkpt>
      <trkpt lat="49.00935" lon="1.77636">
        <ele>84</ele>
        <time>2023-06-30T14:15:13Z</time>
      </trkpt>
      <trkpt lat="49.01017" lon="1.77642">
        <ele>87</ele>
        <time>2023-06-30T14:15:54Z</time>
      </trkpt>
      <trkpt lat="49.01039" lon="1.77639">
        <ele>88</ele>
        <time>2023-06-30T14:16:05Z</time>
      </trkpt>
      <trkpt lat="49.01067" lon="1.77648">
        <ele>89</ele>
        <time>2023-06-30T14:16:19Z</time>
      </trkpt>
      <trkpt lat="49.01061" lon="1.77554">
        <ele>90</ele>
        <time>2023-06-30T14:16:50Z</time>
      </trkpt>
      <trkpt lat="49.01107" lon="1.77479">
        <ele>96</ele>
        <time>2023-06-30T14:17:24Z</time>
      </trkpt>
      <trkpt lat="49.01121" lon="1.77452">
        <ele>97</ele>
        <time>2023-06-30T14:17:35Z</time>
      </trkpt>
      <trkpt lat="49.01132" lon="1.77437">
        <ele>97</ele>
        <time>2023-06-30T14:17:42Z</time>
      </trkpt>
      <trkpt lat="49.01142" lon="1.77428">
        <ele>98</ele>
        <time>2023-06-30T14:17:48Z</time>
      </trkpt>
      <trkpt lat="49.01153" lon="1.77426">
        <ele>99</ele>
        <time>2023-06-30T14:17:54Z</time>
      </trkpt>
      <trkpt lat="49.01162" lon="1.77421">
        <ele>100</ele>
        <time>2023-06-30T14:17:59Z</time>
      </trkpt>
      <trkpt lat="49.01284" lon="1.77512">
        <ele>110</ele>
        <time>2023-06-30T14:19:06Z</time>
      </trkpt>
      <trkpt lat="49.01345" lon="1.77579">
        <ele>114</ele>
        <time>2023-06-30T14:19:44Z</time>
      </trkpt>
      <trkpt lat="49.01458" lon="1.77672">
        <ele>118</ele>
        <time>2023-06-30T14:20:48Z</time>
      </trkpt>
      <trkpt lat="49.01479" lon="1.77682">
        <ele>118</ele>
        <time>2023-06-30T14:20:59Z</time>
      </trkpt>
      <trkpt lat="49.01567" lon="1.78088">
        <ele>121</ele>
        <time>2023-06-30T14:23:20Z</time>
      </trkpt>
      <trkpt lat="49.01662" lon="1.78366">
        <ele>126</ele>
        <time>2023-06-30T14:25:03Z</time>
      </trkpt>
      <trkpt lat="49.01705" lon="1.78429">
        <ele>127</ele>
        <time>2023-06-30T14:25:32Z</time>
      </trkpt>
      <trkpt lat="49.01747" lon="1.78522">
        <ele>130</ele>
        <time>2023-06-30T14:26:10Z</time>
      </trkpt>
      <trkpt lat="49.01777" lon="1.78639">
        <ele>132</ele>
        <time>2023-06-30T14:26:51Z</time>
      </trkpt>
      <trkpt lat="49.0179" lon="1.78707">
        <ele>133</ele>
        <time>2023-06-30T14:27:14Z</time>
      </trkpt>
      <trkpt lat="49.0187" lon="1.78702">
        <ele>140</ele>
        <time>2023-06-30T14:27:54Z</time>
      </trkpt>
      <trkpt lat="49.01959" lon="1.78873">
        <ele>150</ele>
        <time>2023-06-30T14:29:06Z</time>
      </trkpt>
      <trkpt lat="49.01987" lon="1.78851">
        <ele>154</ele>
        <time>2023-06-30T14:29:21Z</time>
      </trkpt>
      <trkpt lat="49.02152" lon="1.78868">
        <ele>167</ele>
        <time>2023-06-30T14:30:44Z</time>
      </trkpt>
      <trkpt lat="49.02171" lon="1.78907">
        <ele>170</ele>
        <time>2023-06-30T14:31:00Z</time>
      </trkpt>
      <trkpt lat="49.02153" lon="1.79043">
        <ele>166</ele>
        <time>2023-06-30T14:31:46Z</time>
      </trkpt>
      <trkpt lat="49.02176" lon="1.79083">
        <ele>168</ele>
        <time>2023-06-30T14:32:03Z</time>
      </trkpt>
      <trkpt lat="49.02251" lon="1.79202">
        <ele>182</ele>
        <time>2023-06-30T14:32:57Z</time>
      </trkpt>
      <trkpt lat="49.02271" lon="1.79245">
        <ele>184</ele>
        <time>2023-06-30T14:33:15Z</time>
      </trkpt>
      <trkpt lat="49.02328" lon="1.79332">
        <ele>187</ele>
        <time>2023-06-30T14:33:55Z</time>
      </trkpt>
      <trkpt lat="49.02344" lon="1.79351">
        <ele>187</ele>
        <time>2023-06-30T14:34:05Z</time>
      </trkpt>
      <trkpt lat="49.02334" lon="1.79568">
        <ele>179</ele>
        <time>2023-06-30T14:35:16Z</time>
      </trkpt>
      <trkpt lat="49.02335" lon="1.79566">
        <ele>179</ele>
        <time>2023-06-30T14:35:17Z</time>
      </trkpt>
      <trkpt lat="49.02349" lon="1.79536">
        <ele>179</ele>
        <time>2023-06-30T14:35:29Z</time>
      </trkpt>
      <trkpt lat="49.02361" lon="1.7952">
        <ele>179</ele>
        <time>2023-06-30T14:35:37Z</time>
      </trkpt>
      <trkpt lat="49.02373" lon="1.79509">
        <ele>179</ele>
        <time>2023-06-30T14:35:44Z</time>
      </trkpt>
      <trkpt lat="49.02405" lon="1.79494">
        <ele>177</ele>
        <time>2023-06-30T14:36:01Z</time>
      </trkpt>
      <trkpt lat="49.02414" lon="1.79494">
        <ele>177</ele>
        <time>2023-06-30T14:36:06Z</time>
      </trkpt>
      <trkpt lat="49.02427" lon="1.79499">
        <ele>175</ele>
        <time>2023-06-30T14:36:12Z</time>
      </trkpt>
      <trkpt lat="49.02438" lon="1.79506">
        <ele>174</ele>
        <time>2023-06-30T14:36:18Z</time>
      </trkpt>
      <trkpt lat="49.02457" lon="1.7951">
        <ele>172</ele>
        <time>2023-06-30T14:36:28Z</time>
      </trkpt>
      <trkpt lat="49.02468" lon="1.79517">
        <ele>170</ele>
        <time>2023-06-30T14:36:34Z</time>
      </trkpt>
      <trkpt lat="49.02479" lon="1.79529">
        <ele>169</ele>
        <time>2023-06-30T14:36:41Z</time>
      </trkpt>
      <trkpt lat="49.025" lon="1.79551">
        <ele>165</ele>
        <time>2023-06-30T14:36:53Z</time>
      </trkpt>
      <trkpt lat="49.02515" lon="1.79561">
        <ele>162</ele>
        <time>2023-06-30T14:37:02Z</time>
      </trkpt>
      <trkpt lat="49.02574" lon="1.79584">
        <ele>153</ele>
        <time>2023-06-30T14:37:32Z</time>
      </trkpt>
      <trkpt lat="49.02587" lon="1.79592">
        <ele>151</ele>
        <time>2023-06-30T14:37:39Z</time>
      </trkpt>
      <trkpt lat="49.02592" lon="1.79598">
        <ele>150</ele>
        <time>2023-06-30T14:37:42Z</time>
      </trkpt>
      <trkpt lat="49.02597" lon="1.79616">
        <ele>149</ele>
        <time>2023-06-30T14:37:49Z</time>
      </trkpt>
      <trkpt lat="49.02603" lon="1.79675">
        <ele>147</ele>
        <time>2023-06-30T14:38:08Z</time>
      </trkpt>
      <trkpt lat="49.02605" lon="1.79682">
        <ele>147</ele>
        <time>2023-06-30T14:38:11Z</time>
      </trkpt>
      <trkpt lat="49.02608" lon="1.79686">
        <ele>146</ele>
        <time>2023-06-30T14:38:13Z</time>
      </trkpt>
      <trkpt lat="49.02613" lon="1.79689">
        <ele>146</ele>
        <time>2023-06-30T14:38:15Z</time>
      </trkpt>
      <trkpt lat="49.02676" lon="1.79693">
        <ele>140</ele>
        <time>2023-06-30T14:38:47Z</time>
      </trkpt>
      <trkpt lat="49.02723" lon="1.797">
        <ele>135</ele>
        <time>2023-06-30T14:39:11Z</time>
      </trkpt>
      <trkpt lat="49.02723" lon="1.79703">
        <ele>135</ele>
        <time>2023-06-30T14:39:12Z</time>
      </trkpt>
      <trkpt lat="49.02733" lon="1.79873">
        <ele>132</ele>
        <time>2023-06-30T14:40:08Z</time>
      </trkpt>
      <trkpt lat="49.02742" lon="1.79938">
        <ele>131</ele>
        <time>2023-06-30T14:40:29Z</time>
      </trkpt>
      <trkpt lat="49.02748" lon="1.79964">
        <ele>131</ele>
        <time>2023-06-30T14:40:38Z</time>
      </trkpt>
      <trkpt lat="49.02761" lon="1.80013">
        <ele>129</ele>
        <time>2023-06-30T14:40:56Z</time>
      </trkpt>
      <trkpt lat="49.02781" lon="1.80059">
        <ele>127</ele>
        <time>2023-06-30T14:41:14Z</time>
      </trkpt>
      <trkpt lat="49.02815" lon="1.80115">
        <ele>124</ele>
        <time>2023-06-30T14:41:39Z</time>
      </trkpt>
      <trkpt lat="49.02832" lon="1.80157">
        <ele>122</ele>
        <time>2023-06-30T14:41:55Z</time>
      </trkpt>
      <trkpt lat="49.02839" lon="1.80182">
        <ele>122</ele>
        <time>2023-06-30T14:42:04Z</time>
      </trkpt>
      <trkpt lat="49.02848" lon="1.80208">
        <ele>122</ele>
        <time>2023-06-30T14:42:14Z</time>
      </trkpt>
      <trkpt lat="49.0287" lon="1.80259">
        <ele>122</ele>
        <time>2023-06-30T14:42:34Z</time>
      </trkpt>
      <trkpt lat="49.02922" lon="1.80357">
        <ele>121</ele>
        <time>2023-06-30T14:43:15Z</time>
      </trkpt>
      <trkpt lat="49.02928" lon="1.80373">
        <ele>121</ele>
        <time>2023-06-30T14:43:21Z</time>
      </trkpt>
      <trkpt lat="49.02941" lon="1.80426">
        <ele>121</ele>
        <time>2023-06-30T14:43:40Z</time>
      </trkpt>
      <trkpt lat="49.02946" lon="1.80439">
        <ele>121</ele>
        <time>2023-06-30T14:43:45Z</time>
      </trkpt>
      <trkpt lat="49.02969" lon="1.80474">
        <ele>121</ele>
        <time>2023-06-30T14:44:01Z</time>
      </trkpt>
      <trkpt lat="49.02994" lon="1.80507">
        <ele>121</ele>
        <time>2023-06-30T14:44:17Z</time>
      </trkpt>
      <trkpt lat="49.02992" lon="1.80514">
        <ele>121</ele>
        <time>2023-06-30T14:44:20Z</time>
      </trkpt>
      <trkpt lat="49.02995" lon="1.80534">
        <ele>121</ele>
        <time>2023-06-30T14:44:27Z</time>
      </trkpt>
      <trkpt lat="49.03027" lon="1.80864">
        <ele>118</ele>
        <time>2023-06-30T14:46:16Z</time>
      </trkpt>
      <trkpt lat="49.03048" lon="1.81135">
        <ele>111</ele>
        <time>2023-06-30T14:47:46Z</time>
      </trkpt>
      <trkpt lat="49.0305" lon="1.81187">
        <ele>107</ele>
        <time>2023-06-30T14:48:03Z</time>
      </trkpt>
      <trkpt lat="49.03049" lon="1.81201">
        <ele>106</ele>
        <time>2023-06-30T14:48:07Z</time>
      </trkpt>
      <trkpt lat="49.0304" lon="1.81238">
        <ele>105</ele>
        <time>2023-06-30T14:48:20Z</time>
      </trkpt>
      <trkpt lat="49.03016" lon="1.81297">
        <ele>104</ele>
        <time>2023-06-30T14:48:43Z</time>
      </trkpt>
      <trkpt lat="49.02985" lon="1.81345">
        <ele>103</ele>
        <time>2023-06-30T14:49:05Z</time>
      </trkpt>
      <trkpt lat="49.02978" lon="1.81367">
        <ele>102</ele>
        <time>2023-06-30T14:49:13Z</time>
      </trkpt>
      <trkpt lat="49.02957" lon="1.81405">
        <ele>102</ele>
        <time>2023-06-30T14:49:30Z</time>
      </trkpt>
      <trkpt lat="49.02941" lon="1.81441">
        <ele>102</ele>
        <time>2023-06-30T14:49:44Z</time>
      </trkpt>
      <trkpt lat="49.02929" lon="1.81479">
        <ele>102</ele>
        <time>2023-06-30T14:49:58Z</time>
      </trkpt>
      <trkpt lat="49.02923" lon="1.81506">
        <ele>101</ele>
        <time>2023-06-30T14:50:07Z</time>
      </trkpt>
      <trkpt lat="49.02923" lon="1.81506">
        <ele>101</ele>
        <time>2023-06-30T14:50:07Z</time>
      </trkpt>
      <trkpt lat="49.02923" lon="1.81506">
        <ele>101</ele>
        <time>2023-06-30T14:50:07Z</time>
      </trkpt>
      <trkpt lat="49.02893" lon="1.81553">
        <ele>102</ele>
        <time>2023-06-30T14:50:29Z</time>
      </trkpt>
      <trkpt lat="49.02842" lon="1.81658">
        <ele>110</ele>
        <time>2023-06-30T14:51:11Z</time>
      </trkpt>
      <trkpt lat="49.02839" lon="1.81669">
        <ele>111</ele>
        <time>2023-06-30T14:51:15Z</time>
      </trkpt>
      <trkpt lat="49.02842" lon="1.81707">
        <ele>107</ele>
        <time>2023-06-30T14:51:28Z</time>
      </trkpt>
      <trkpt lat="49.02829" lon="1.81738">
        <ele>107</ele>
        <time>2023-06-30T14:51:40Z</time>
      </trkpt>
      <trkpt lat="49.0282" lon="1.81768">
        <ele>103</ele>
        <time>2023-06-30T14:51:51Z</time>
      </trkpt>
      <trkpt lat="49.02812" lon="1.81779">
        <ele>101</ele>
        <time>2023-06-30T14:51:56Z</time>
      </trkpt>
      <trkpt lat="49.02801" lon="1.81787">
        <ele>100</ele>
        <time>2023-06-30T14:52:02Z</time>
      </trkpt>
      <trkpt lat="49.02786" lon="1.81784">
        <ele>101</ele>
        <time>2023-06-30T14:52:10Z</time>
      </trkpt>
      <trkpt lat="49.02768" lon="1.81775">
        <ele>103</ele>
        <time>2023-06-30T14:52:19Z</time>
      </trkpt>
      <trkpt lat="49.02757" lon="1.81777">
        <ele>103</ele>
        <time>2023-06-30T14:52:25Z</time>
      </trkpt>
      <trkpt lat="49.02707" lon="1.81894">
        <ele>85</ele>
        <time>2023-06-30T14:53:11Z</time>
      </trkpt>
      <trkpt lat="49.02695" lon="1.81908">
        <ele>84</ele>
        <time>2023-06-30T14:53:18Z</time>
      </trkpt>
      <trkpt lat="49.02691" lon="1.8192">
        <ele>83</ele>
        <time>2023-06-30T14:53:23Z</time>
      </trkpt>
      <trkpt lat="49.02669" lon="1.81916">
        <ele>83</ele>
        <time>2023-06-30T14:53:34Z</time>
      </trkpt>
      <trkpt lat="49.02631" lon="1.81959">
        <ele>86</ele>
        <time>2023-06-30T14:53:57Z</time>
      </trkpt>
      <trkpt lat="49.02623" lon="1.81973">
        <ele>87</ele>
        <time>2023-06-30T14:54:04Z</time>
      </trkpt>
      <trkpt lat="49.02617" lon="1.8199">
        <ele>89</ele>
        <time>2023-06-30T14:54:10Z</time>
      </trkpt>
      <trkpt lat="49.02617" lon="1.82013">
        <ele>90</ele>
        <time>2023-06-30T14:54:17Z</time>
      </trkpt>
      <trkpt lat="49.02624" lon="1.82091">
        <ele>92</ele>
        <time>2023-06-30T14:54:43Z</time>
      </trkpt>
      <trkpt lat="49.02642" lon="1.8221">
        <ele>100</ele>
        <time>2023-06-30T14:55:23Z</time>
      </trkpt>
      <trkpt lat="49.02641" lon="1.82258">
        <ele>104</ele>
        <time>2023-06-30T14:55:39Z</time>
      </trkpt>
      <trkpt lat="49.02638" lon="1.82288">
        <ele>106</ele>
        <time>2023-06-30T14:55:49Z</time>
      </trkpt>
      <trkpt lat="49.02636" lon="1.82288">
        <ele>106</ele>
        <time>2023-06-30T14:55:50Z</time>
      </trkpt>
      <trkpt lat="49.02638" lon="1.82288">
        <ele>106</ele>
        <time>2023-06-30T14:55:51Z</time>
      </trkpt>
      <trkpt lat="49.02596" lon="1.82454">
        <ele>113</ele>
        <time>2023-06-30T14:56:49Z</time>
      </trkpt>
      <trkpt lat="49.0259" lon="1.82473">
        <ele>113</ele>
        <time>2023-06-30T14:56:56Z</time>
      </trkpt>
      <trkpt lat="49.02539" lon="1.82589">
        <ele>113</ele>
        <time>2023-06-30T14:57:42Z</time>
      </trkpt>
      <trkpt lat="49.02444" lon="1.82831">
        <ele>114</ele>
        <time>2023-06-30T14:59:15Z</time>
      </trkpt>
      <trkpt lat="49.02432" lon="1.82886">
        <ele>115</ele>
        <time>2023-06-30T14:59:34Z</time>
      </trkpt>
      <trkpt lat="49.02427" lon="1.82893">
        <ele>116</ele>
        <time>2023-06-30T14:59:37Z</time>
      </trkpt>
      <trkpt lat="49.02399" lon="1.82883">
        <ele>118</ele>
        <time>2023-06-30T14:59:52Z</time>
      </trkpt>
      <trkpt lat="49.02377" lon="1.82863">
        <ele>119</ele>
        <time>2023-06-30T15:00:04Z</time>
      </trkpt>
      <trkpt lat="49.02361" lon="1.82851">
        <ele>119</ele>
        <time>2023-06-30T15:00:13Z</time>
      </trkpt>
      <trkpt lat="49.02339" lon="1.82851">
        <ele>120</ele>
        <time>2023-06-30T15:00:24Z</time>
      </trkpt>
      <trkpt lat="49.02301" lon="1.82856">
        <ele>121</ele>
        <time>2023-06-30T15:00:43Z</time>
      </trkpt>
      <trkpt lat="49.02235" lon="1.82856">
        <ele>120</ele>
        <time>2023-06-30T15:01:16Z</time>
      </trkpt>
      <trkpt lat="49.02235" lon="1.82852">
        <ele>120</ele>
        <time>2023-06-30T15:01:18Z</time>
      </trkpt>
      <trkpt lat="49.02212" lon="1.82848">
        <ele>121</ele>
        <time>2023-06-30T15:01:29Z</time>
      </trkpt>
      <trkpt lat="49.02175" lon="1.8285">
        <ele>121</ele>
        <time>2023-06-30T15:01:48Z</time>
      </trkpt>
      <trkpt lat="49.02158" lon="1.82848">
        <ele>122</ele>
        <time>2023-06-30T15:01:56Z</time>
      </trkpt>
      <trkpt lat="49.02115" lon="1.82828">
        <ele>124</ele>
        <time>2023-06-30T15:02:19Z</time>
      </trkpt>
      <trkpt lat="49.02008" lon="1.82767">
        <ele>132</ele>
        <time>2023-06-30T15:03:16Z</time>
      </trkpt>
      <trkpt lat="49.01957" lon="1.82745">
        <ele>136</ele>
        <time>2023-06-30T15:03:43Z</time>
      </trkpt>
      <trkpt lat="49.01929" lon="1.8273">
        <ele>138</ele>
        <time>2023-06-30T15:03:57Z</time>
      </trkpt>
      <trkpt lat="49.01902" lon="1.82708">
        <ele>140</ele>
        <time>2023-06-30T15:04:13Z</time>
      </trkpt>
      <trkpt lat="49.019" lon="1.82709">
        <ele>140</ele>
        <time>2023-06-30T15:04:14Z</time>
      </trkpt>
      <trkpt lat="49.019" lon="1.82727">
        <ele>139</ele>
        <time>2023-06-30T15:04:20Z</time>
      </trkpt>
      <trkpt lat="49.01905" lon="1.82912">
        <ele>128</ele>
        <time>2023-06-30T15:05:20Z</time>
      </trkpt>
      <trkpt lat="49.0191" lon="1.82955">
        <ele>127</ele>
        <time>2023-06-30T15:05:35Z</time>
      </trkpt>
      <trkpt lat="49.01921" lon="1.83">
        <ele>127</ele>
        <time>2023-06-30T15:05:51Z</time>
      </trkpt>
      <trkpt lat="49.01938" lon="1.83041">
        <ele>127</ele>
        <time>2023-06-30T15:06:06Z</time>
      </trkpt>
      <trkpt lat="49.0195" lon="1.83066">
        <ele>127</ele>
        <time>2023-06-30T15:06:17Z</time>
      </trkpt>
      <trkpt lat="49.0196" lon="1.83081">
        <ele>127</ele>
        <time>2023-06-30T15:06:24Z</time>
      </trkpt>
      <trkpt lat="49.01972" lon="1.83097">
        <ele>128</ele>
        <time>2023-06-30T15:06:32Z</time>
      </trkpt>
      <trkpt lat="49.02024" lon="1.8315">
        <ele>127</ele>
        <time>2023-06-30T15:07:03Z</time>
      </trkpt>
      <trkpt lat="49.02018" lon="1.83153">
        <ele>128</ele>
        <time>2023-06-30T15:07:06Z</time>
      </trkpt>
      <trkpt lat="49.01999" lon="1.83164">
        <ele>130</ele>
        <time>2023-06-30T15:07:16Z</time>
      </trkpt>
      <trkpt lat="49.01961" lon="1.83176">
        <ele>133</ele>
        <time>2023-06-30T15:07:36Z</time>
      </trkpt>
      <trkpt lat="49.01912" lon="1.8317">
        <ele>137</ele>
        <time>2023-06-30T15:08:00Z</time>
      </trkpt>
      <trkpt lat="49.01836" lon="1.83173">
        <ele>141</ele>
        <time>2023-06-30T15:08:38Z</time>
      </trkpt>
      <trkpt lat="49.01775" lon="1.83141">
        <ele>145</ele>
        <time>2023-06-30T15:09:11Z</time>
      </trkpt>
      <trkpt lat="49.01756" lon="1.83131">
        <ele>146</ele>
        <time>2023-06-30T15:09:21Z</time>
      </trkpt>
      <trkpt lat="49.0167" lon="1.83095">
        <ele>149</ele>
        <time>2023-06-30T15:10:05Z</time>
      </trkpt>
      <trkpt lat="49.0162" lon="1.83077">
        <ele>150</ele>
        <time>2023-06-30T15:10:31Z</time>
      </trkpt>
      <trkpt lat="49.01566" lon="1.8307">
        <ele>152</ele>
        <time>2023-06-30T15:10:58Z</time>
      </trkpt>
      <trkpt lat="49.01508" lon="1.83075">
        <ele>156</ele>
        <time>2023-06-30T15:11:27Z</time>
      </trkpt>
      <trkpt lat="49.01498" lon="1.83073">
        <ele>156</ele>
        <time>2023-06-30T15:11:32Z</time>
      </trkpt>
      <trkpt lat="49.01474" lon="1.83063">
        <ele>157</ele>
        <time>2023-06-30T15:11:45Z</time>
      </trkpt>
      <trkpt lat="49.01456" lon="1.83044">
        <ele>158</ele>
        <time>2023-06-30T15:11:56Z</time>
      </trkpt>
      <trkpt lat="49.01431" lon="1.83024">
        <ele>159</ele>
        <time>2023-06-30T15:12:10Z</time>
      </trkpt>
      <trkpt lat="49.01415" lon="1.82997">
        <ele>162</ele>
        <time>2023-06-30T15:12:22Z</time>
      </trkpt>
      <trkpt lat="49.01334" lon="1.83052">
        <ele>170</ele>
        <time>2023-06-30T15:13:06Z</time>
      </trkpt>
      <trkpt lat="49.01309" lon="1.83066">
        <ele>173</ele>
        <time>2023-06-30T15:13:19Z</time>
      </trkpt>
      <trkpt lat="49.01272" lon="1.83077">
        <ele>178</ele>
        <time>2023-06-30T15:13:38Z</time>
      </trkpt>
      <trkpt lat="49.01216" lon="1.83126">
        <ele>180</ele>
        <time>2023-06-30T15:14:11Z</time>
      </trkpt>
      <trkpt lat="49.012" lon="1.8314">
        <ele>178</ele>
        <time>2023-06-30T15:14:20Z</time>
      </trkpt>
      <trkpt lat="49.01196" lon="1.83135">
        <ele>178</ele>
        <time>2023-06-30T15:14:22Z</time>
      </trkpt>
      <trkpt lat="49.01123" lon="1.83109">
        <ele>173</ele>
        <time>2023-06-30T15:15:00Z</time>
      </trkpt>
      <trkpt lat="49.01071" lon="1.83086">
        <ele>169</ele>
        <time>2023-06-30T15:15:27Z</time>
      </trkpt>
      <trkpt lat="49.0103" lon="1.83053">
        <ele>167</ele>
        <time>2023-06-30T15:15:50Z</time>
      </trkpt>
      <trkpt lat="49.01" lon="1.83025">
        <ele>165</ele>
        <time>2023-06-30T15:16:08Z</time>
      </trkpt>
      <trkpt lat="49.00907" lon="1.82963">
        <ele>159</ele>
        <time>2023-06-30T15:16:59Z</time>
      </trkpt>
      <trkpt lat="49.00831" lon="1.82883">
        <ele>155</ele>
        <time>2023-06-30T15:17:45Z</time>
      </trkpt>
      <trkpt lat="49.00759" lon="1.82825">
        <ele>148</ele>
        <time>2023-06-30T15:18:26Z</time>
      </trkpt>
      <trkpt lat="49.00768" lon="1.82774">
        <ele>148</ele>
        <time>2023-06-30T15:18:43Z</time>
      </trkpt>
      <trkpt lat="49.00806" lon="1.82667">
        <ele>145</ele>
        <time>2023-06-30T15:19:23Z</time>
      </trkpt>
      <trkpt lat="49.00825" lon="1.82609">
        <ele>146</ele>
        <time>2023-06-30T15:19:44Z</time>
      </trkpt>
      <trkpt lat="49.0088" lon="1.82539">
        <ele>151</ele>
        <time>2023-06-30T15:20:20Z</time>
      </trkpt>
      <trkpt lat="49.00908" lon="1.82486">
        <ele>153</ele>
        <time>2023-06-30T15:20:42Z</time>
      </trkpt>
      <trkpt lat="49.00945" lon="1.82408">
        <ele>155</ele>
        <time>2023-06-30T15:21:14Z</time>
      </trkpt>
      <trkpt lat="49.00962" lon="1.82395">
        <ele>156</ele>
        <time>2023-06-30T15:21:23Z</time>
      </trkpt>
      <trkpt lat="49.00971" lon="1.8238">
        <ele>156</ele>
        <time>2023-06-30T15:21:30Z</time>
      </trkpt>
      <trkpt lat="49.01009" lon="1.82131">
        <ele>166</ele>
        <time>2023-06-30T15:22:54Z</time>
      </trkpt>
      <trkpt lat="49.00998" lon="1.82117">
        <ele>165</ele>
        <time>2023-06-30T15:23:01Z</time>
      </trkpt>
      <trkpt lat="49.00949" lon="1.8209">
        <ele>164</ele>
        <time>2023-06-30T15:23:27Z</time>
      </trkpt>
      <trkpt lat="49.00829" lon="1.82038">
        <ele>160</ele>
        <time>2023-06-30T15:24:30Z</time>
      </trkpt>
      <trkpt lat="49.00812" lon="1.82025">
        <ele>161</ele>
        <time>2023-06-30T15:24:39Z</time>
      </trkpt>
      <trkpt lat="49.00792" lon="1.81995">
        <ele>163</ele>
        <time>2023-06-30T15:24:53Z</time>
      </trkpt>
      <trkpt lat="49.00773" lon="1.81981">
        <ele>163</ele>
        <time>2023-06-30T15:25:04Z</time>
      </trkpt>
      <trkpt lat="49.00717" lon="1.81975">
        <ele>159</ele>
        <time>2023-06-30T15:25:32Z</time>
      </trkpt>
      <trkpt lat="49.0067" lon="1.81959">
        <ele>156</ele>
        <time>2023-06-30T15:25:56Z</time>
      </trkpt>
      <trkpt lat="49.00625" lon="1.8195">
        <ele>154</ele>
        <time>2023-06-30T15:26:19Z</time>
      </trkpt>
      <trkpt lat="49.00599" lon="1.8192">
        <ele>154</ele>
        <time>2023-06-30T15:26:35Z</time>
      </trkpt>
      <trkpt lat="49.00575" lon="1.81919">
        <ele>152</ele>
        <time>2023-06-30T15:26:47Z</time>
      </trkpt>
      <trkpt lat="49.0055" lon="1.81899">
        <ele>149</ele>
        <time>2023-06-30T15:27:01Z</time>
      </trkpt>
      <trkpt lat="49.00516" lon="1.81886">
        <ele>145</ele>
        <time>2023-06-30T15:27:19Z</time>
      </trkpt>
      <trkpt lat="49.00452" lon="1.81826">
        <ele>139</ele>
        <time>2023-06-30T15:27:56Z</time>
      </trkpt>
      <trkpt lat="49.00429" lon="1.81817">
        <ele>136</ele>
        <time>2023-06-30T15:28:08Z</time>
      </trkpt>
      <trkpt lat="49.00373" lon="1.81784">
        <ele>132</ele>
        <time>2023-06-30T15:28:38Z</time>
      </trkpt>
      <trkpt lat="49.00293" lon="1.8174">
        <ele>127</ele>
        <time>2023-06-30T15:29:21Z</time>
      </trkpt>
      <trkpt lat="49.00233" lon="1.81712">
        <ele>125</ele>
        <time>2023-06-30T15:29:52Z</time>
      </trkpt>
      <trkpt lat="49.00155" lon="1.81679">
        <ele>123</ele>
        <time>2023-06-30T15:30:33Z</time>
      </trkpt>
      <trkpt lat="49.00098" lon="1.81633">
        <ele>122</ele>
        <time>2023-06-30T15:31:05Z</time>
      </trkpt>
      <trkpt lat="49.00042" lon="1.81582">
        <ele>121</ele>
        <time>2023-06-30T15:31:38Z</time>
      </trkpt>
      <trkpt lat="48.99828" lon="1.81351">
        <ele>111</ele>
        <time>2023-06-30T15:33:49Z</time>
      </trkpt>
      <trkpt lat="48.99828" lon="1.81354">
        <ele>111</ele>
        <time>2023-06-30T15:33:50Z</time>
      </trkpt>
      <trkpt lat="48.99855" lon="1.81163">
        <ele>106</ele>
        <time>2023-06-30T15:34:54Z</time>
      </trkpt>
      <trkpt lat="48.99903" lon="1.81166">
        <ele>106</ele>
        <time>2023-06-30T15:35:18Z</time>
      </trkpt>
      <trkpt lat="48.99911" lon="1.81106">
        <ele>104</ele>
        <time>2023-06-30T15:35:38Z</time>
      </trkpt>
      <trkpt lat="48.99984" lon="1.81125">
        <ele>106</ele>
        <time>2023-06-30T15:36:15Z</time>
      </trkpt>
      <trkpt lat="49.00008" lon="1.80896">
        <ele>112</ele>
        <time>2023-06-30T15:37:31Z</time>
      </trkpt>
      <trkpt lat="49.00025" lon="1.80759">
        <ele>116</ele>
        <time>2023-06-30T15:38:17Z</time>
      </trkpt>
      <trkpt lat="49.00046" lon="1.80067">
        <ele>119</ele>
        <time>2023-06-30T15:42:05Z</time>
      </trkpt>
      <trkpt lat="48.99945" lon="1.7998">
        <ele>118</ele>
        <time>2023-06-30T15:43:03Z</time>
      </trkpt>
      <trkpt lat="48.99552" lon="1.7946">
        <ele>112</ele>
        <time>2023-06-30T15:47:23Z</time>
      </trkpt>
      <trkpt lat="48.99548" lon="1.79456">
        <ele>113</ele>
        <time>2023-06-30T15:47:25Z</time>
      </trkpt>
      <trkpt lat="48.99543" lon="1.79453">
        <ele>113</ele>
        <time>2023-06-30T15:47:28Z</time>
      </trkpt>
      <trkpt lat="48.99529" lon="1.79431">
        <ele>113</ele>
        <time>2023-06-30T15:47:38Z</time>
      </trkpt>
      <trkpt lat="48.99451" lon="1.79426">
        <ele>109</ele>
        <time>2023-06-30T15:48:17Z</time>
      </trkpt>
      <trkpt lat="48.9935" lon="1.79412">
        <ele>107</ele>
        <time>2023-06-30T15:49:08Z</time>
      </trkpt>
      <trkpt lat="48.99294" lon="1.79432">
        <ele>102</ele>
        <time>2023-06-30T15:49:37Z</time>
      </trkpt>
      <trkpt lat="48.99275" lon="1.79441">
        <ele>99</ele>
        <time>2023-06-30T15:49:47Z</time>
      </trkpt>
      <trkpt lat="48.99124" lon="1.79483">
        <ele>81</ele>
        <time>2023-06-30T15:51:04Z</time>
      </trkpt>
      <trkpt lat="48.9909" lon="1.79481">
        <ele>78</ele>
        <time>2023-06-30T15:51:21Z</time>
      </trkpt>
      <trkpt lat="48.99024" lon="1.79442">
        <ele>76</ele>
        <time>2023-06-30T15:51:56Z</time>
      </trkpt>
      <trkpt lat="48.99014" lon="1.79433">
        <ele>76</ele>
        <time>2023-06-30T15:52:02Z</time>
      </trkpt>
      <trkpt lat="48.98989" lon="1.79371">
        <ele>77</ele>
        <time>2023-06-30T15:52:26Z</time>
      </trkpt>
      <trkpt lat="48.9898" lon="1.79338">
        <ele>78</ele>
        <time>2023-06-30T15:52:37Z</time>
      </trkpt>
      <trkpt lat="48.98959" lon="1.79329">
        <ele>78</ele>
        <time>2023-06-30T15:52:48Z</time>
      </trkpt>
      <trkpt lat="48.9893" lon="1.79311">
        <ele>77</ele>
        <time>2023-06-30T15:53:04Z</time>
      </trkpt>
      <trkpt lat="48.98889" lon="1.79301">
        <ele>76</ele>
        <time>2023-06-30T15:53:25Z</time>
      </trkpt>
      <trkpt lat="48.98875" lon="1.79335">
        <ele>76</ele>
        <time>2023-06-30T15:53:38Z</time>
      </trkpt>
      <trkpt lat="48.98863" lon="1.79342">
        <ele>75</ele>
        <time>2023-06-30T15:53:44Z</time>
      </trkpt>
      <trkpt lat="48.9885" lon="1.79346">
        <ele>75</ele>
        <time>2023-06-30T15:53:51Z</time>
      </trkpt>
      <trkpt lat="48.9878" lon="1.79347">
        <ele>72</ele>
        <time>2023-06-30T15:54:26Z</time>
      </trkpt>
      <trkpt lat="48.9878" lon="1.79427">
        <ele>72</ele>
        <time>2023-06-30T15:54:52Z</time>
      </trkpt>
      <trkpt lat="48.98669" lon="1.79434">
        <ele>66</ele>
        <time>2023-06-30T15:55:48Z</time>
      </trkpt>
      <trkpt lat="48.98551" lon="1.79445">
        <ele>62</ele>
        <time>2023-06-30T15:56:47Z</time>
      </trkpt>
    </trkseg>
  </trk>
</gpx>